Westville, Connecticut
Current Conditions -  °F | °C
As of 11:53 AM on Thursday 23 Oct 2014 (Local Time) from KHVN Reporting Station
Overcast Overcast  
Wind Chill: 55°   Ceiling: 2000
Heat Index: 55°   Visibility: 10mi
Dew Point: 46°   Wind: 23mph
Humidity: 72%   Direction: 360°N
Pressure: 29.64"   Gusts: 35mph
Location:  41.3258°N, 72.9705°W
Report Text: KHVN 231553Z 36020G30KT 10SM OVC020 13/08 A2964 RMK AO2 PK WND 01032/1512 SLP038 T01280078
Loading
Personal Weather Stations






























Interactive Weather Map New forecast layout! Learn more

10-Day Weather Forecast

Advertisements
Track Severe Weather on mobile